createdAt,value
2016-12-18T00:00:04.081Z,1014.92
2016-12-18T00:01:04.110Z,1014.89
2016-12-18T00:02:04.139Z,1014.86
2016-12-18T00:03:04.164Z,1014.85
2016-12-18T00:04:04.193Z,1014.85
2016-12-18T00:05:04.217Z,1014.86
2016-12-18T00:06:04.246Z,1014.89
2016-12-18T00:07:04.276Z,1014.87
2016-12-18T00:08:04.300Z,1014.84
2016-12-18T00:09:04.328Z,1014.81
2016-12-18T00:10:04.352Z,1014.83
2016-12-18T00:11:04.385Z,1014.83
2016-12-18T00:12:04.414Z,1014.85
2016-12-18T00:13:04.438Z,1014.87
2016-12-18T00:14:04.479Z,1014.89
2016-12-18T00:15:04.496Z,1014.89
2016-12-18T00:16:04.521Z,1014.87
2016-12-18T00:17:04.550Z,1014.85
2016-12-18T00:18:04.579Z,1014.86
2016-12-18T00:19:04.607Z,1014.84
2016-12-18T00:20:04.627Z,1014.91
2016-12-18T00:21:04.660Z,1014.83
2016-12-18T00:22:04.685Z,1014.83
2016-12-18T00:23:04.714Z,1014.82
2016-12-18T00:24:04.742Z,1014.81
2016-12-18T00:25:04.771Z,1014.81
2016-12-18T00:26:04.796Z,1014.75
2016-12-18T00:27:04.821Z,1014.73
2016-12-18T00:28:04.854Z,1014.68
2016-12-18T00:29:04.878Z,1014.64
2016-12-18T00:30:04.907Z,1014.67
2016-12-18T00:31:04.935Z,1014.65
2016-12-18T00:32:04.960Z,1014.66
2016-12-18T00:33:04.989Z,1014.7
2016-12-18T00:34:05.018Z,1014.63
2016-12-18T00:35:05.041Z,1014.58
2016-12-18T00:36:05.072Z,1014.54
2016-12-18T00:37:05.096Z,1014.51
2016-12-18T00:38:05.125Z,1014.51
2016-12-18T00:39:05.153Z,1014.53
2016-12-18T00:40:05.182Z,1014.52
2016-12-18T00:41:05.211Z,1014.54
2016-12-18T00:42:05.237Z,1014.55
2016-12-18T00:43:05.264Z,1014.51
2016-12-18T00:44:05.293Z,1014.57
2016-12-18T00:45:05.318Z,1014.57
2016-12-18T00:46:05.346Z,1014.57
2016-12-18T00:47:05.373Z,1014.62
2016-12-18T00:48:05.395Z,1014.59
2016-12-18T00:49:05.424Z,1014.58
2016-12-18T00:50:05.450Z,1014.57
2016-12-18T00:51:05.482Z,1014.62
2016-12-18T00:52:05.511Z,1014.62
2016-12-18T00:53:05.536Z,1014.67
2016-12-18T00:54:05.565Z,1014.74
2016-12-18T00:55:05.590Z,1014.74
2016-12-18T00:56:05.610Z,1014.76
2016-12-18T00:57:05.642Z,1014.81
2016-12-18T00:58:05.671Z,1014.83
2016-12-18T00:59:05.703Z,1014.81
2016-12-18T01:00:05.728Z,1014.84
2016-12-18T01:01:05.758Z,1014.84
2016-12-18T01:02:05.783Z,1014.81
2016-12-18T01:03:05.811Z,1014.92
2016-12-18T01:04:05.848Z,1014.9
2016-12-18T01:05:05.860Z,1014.9
2016-12-18T01:06:05.895Z,1014.93
2016-12-18T01:07:05.917Z,1014.95
2016-12-18T01:08:05.943Z,1015
2016-12-18T01:09:05.976Z,1015.01
2016-12-18T01:10:06.004Z,1015.02
2016-12-18T01:11:06.025Z,1015.04
2016-12-18T01:12:06.058Z,1015.07
2016-12-18T01:13:06.086Z,1015.08
2016-12-18T01:14:06.111Z,1015.06
2016-12-18T01:15:06.137Z,1015.09
2016-12-18T01:16:06.164Z,1015.08
2016-12-18T01:17:06.193Z,1015.09
2016-12-18T01:18:06.222Z,1015.09
2016-12-18T01:19:06.247Z,1015.12
2016-12-18T01:20:06.271Z,1015.09
2016-12-18T01:21:06.300Z,1015.06
2016-12-18T01:22:06.329Z,1015.07
2016-12-18T01:23:06.354Z,1015.1
2016-12-18T01:24:06.387Z,1015.17
2016-12-18T01:25:06.407Z,1015.1
2016-12-18T01:26:06.441Z,1015.08
2016-12-18T01:27:06.465Z,1015.07
2016-12-18T01:28:06.497Z,1015.12
2016-12-18T01:29:06.522Z,1015.11
2016-12-18T01:30:06.551Z,1015.1
2016-12-18T01:31:06.572Z,1015.08
2016-12-18T01:32:06.605Z,1015.08
2016-12-18T01:33:06.628Z,1015.07
2016-12-18T01:34:06.657Z,1015.07
2016-12-18T01:35:06.683Z,1015.05
2016-12-18T01:36:06.707Z,1015.06
2016-12-18T01:37:06.746Z,1015.06
2016-12-18T01:38:06.769Z,1015.03
2016-12-18T01:39:06.797Z,1014.97
2016-12-18T01:40:06.822Z,1014.93
2016-12-18T01:41:06.851Z,1014.9
2016-12-18T01:42:06.876Z,1014.84
2016-12-18T01:43:06.900Z,1014.85
2016-12-18T01:44:06.928Z,1014.9
2016-12-18T01:45:06.954Z,1014.92
2016-12-18T01:46:06.986Z,1014.94
2016-12-18T01:47:07.012Z,1014.99
2016-12-18T01:48:07.046Z,1014.98
2016-12-18T01:49:07.069Z,1015
2016-12-18T01:50:07.094Z,1015.03
2016-12-18T01:51:07.125Z,1014.99
2016-12-18T01:52:07.144Z,1015
2016-12-18T01:53:07.175Z,1014.96
2016-12-18T01:54:07.201Z,1014.91
2016-12-18T01:55:07.225Z,1014.88
2016-12-18T01:56:07.258Z,1014.87
2016-12-18T01:57:07.288Z,1014.87
2016-12-18T01:58:07.311Z,1014.93
2016-12-18T01:59:07.340Z,1014.93
2016-12-18T02:00:07.364Z,1014.95
2016-12-18T02:01:07.390Z,1014.95
2016-12-18T02:02:07.414Z,1015.04
2016-12-18T02:03:07.443Z,1015.05
2016-12-18T02:04:07.472Z,1015.07
2016-12-18T02:05:07.500Z,1015.05
2016-12-18T02:06:07.529Z,1015.04
2016-12-18T02:07:07.554Z,1015.03
2016-12-18T02:08:07.583Z,1014.99
2016-12-18T02:09:07.607Z,1014.97
2016-12-18T02:10:07.636Z,1014.93
2016-12-18T02:11:07.667Z,1014.96
2016-12-18T02:12:07.691Z,1014.96
2016-12-18T02:13:07.718Z,1014.97
2016-12-18T02:14:07.747Z,1015.01
2016-12-18T02:15:07.776Z,1015.03
2016-12-18T02:16:07.800Z,1015.04
2016-12-18T02:17:07.832Z,1015.05
2016-12-18T02:18:07.849Z,1015.02
2016-12-18T02:19:07.882Z,1014.99
2016-12-18T02:20:07.906Z,1014.98
2016-12-18T02:21:07.931Z,1014.9
2016-12-18T02:22:07.960Z,1014.86
2016-12-18T02:23:07.989Z,1014.78
2016-12-18T02:24:08.018Z,1014.74
2016-12-18T02:25:08.042Z,1014.74
2016-12-18T02:26:08.071Z,1014.73
2016-12-18T02:27:08.095Z,1014.73
2016-12-18T02:28:08.131Z,1014.72
2016-12-18T02:29:08.152Z,1014.71
2016-12-18T02:30:08.191Z,1014.71
2016-12-18T02:31:08.207Z,1014.71
2016-12-18T02:32:08.239Z,1014.71
2016-12-18T02:33:08.261Z,1014.75
2016-12-18T02:34:08.289Z,1014.72
2016-12-18T02:35:08.313Z,1014.74
2016-12-18T02:36:08.342Z,1014.78
2016-12-18T02:37:08.370Z,1014.82
2016-12-18T02:38:08.395Z,1014.76
2016-12-18T02:39:08.420Z,1014.76
2016-12-18T02:40:08.455Z,1014.73
2016-12-18T02:41:08.478Z,1014.73
2016-12-18T02:42:08.502Z,1014.71
2016-12-18T02:43:08.532Z,1014.71
2016-12-18T02:44:08.556Z,1014.69
2016-12-18T02:45:08.584Z,1014.66
2016-12-18T02:46:08.609Z,1014.66
2016-12-18T02:47:08.634Z,1014.67
2016-12-18T02:48:08.663Z,1014.69
2016-12-18T02:49:08.695Z,1014.62
2016-12-18T02:50:08.731Z,1014.62
2016-12-18T02:51:08.745Z,1014.63
2016-12-18T02:52:08.791Z,1014.62
2016-12-18T02:53:08.802Z,1014.6
2016-12-18T02:54:08.831Z,1014.61
2016-12-18T02:55:08.852Z,1014.61
2016-12-18T02:56:08.884Z,1014.66
2016-12-18T02:57:08.909Z,1014.7
2016-12-18T02:58:08.939Z,1014.71
2016-12-18T02:59:08.964Z,1014.74
2016-12-18T03:00:08.991Z,1014.68
2016-12-18T03:01:09.016Z,1014.66
2016-12-18T03:02:09.051Z,1014.69
2016-12-18T03:03:09.070Z,1014.69
2016-12-18T03:04:09.102Z,1014.68
2016-12-18T03:05:09.123Z,1014.69
2016-12-18T03:06:09.156Z,1014.65
2016-12-18T03:07:09.181Z,1014.64
2016-12-18T03:08:09.209Z,1014.62
2016-12-18T03:09:09.235Z,1014.59
2016-12-18T03:10:09.269Z,1014.55
2016-12-18T03:11:09.291Z,1014.48
2016-12-18T03:12:09.313Z,1014.46
2016-12-18T03:13:09.341Z,1014.45
2016-12-18T03:14:09.369Z,1014.42
2016-12-18T03:15:09.399Z,1014.42
2016-12-18T03:16:09.424Z,1014.47
2016-12-18T03:17:09.452Z,1014.53
2016-12-18T03:18:09.483Z,1014.53
2016-12-18T03:19:09.505Z,1014.54
2016-12-18T03:20:09.530Z,1014.53
2016-12-18T03:21:09.559Z,1014.55
2016-12-18T03:22:09.588Z,1014.52
2016-12-18T03:23:09.613Z,1014.47
2016-12-18T03:24:09.638Z,1014.51
2016-12-18T03:25:09.671Z,1014.45
2016-12-18T03:26:09.695Z,1014.43
2016-12-18T03:27:09.717Z,1014.42
2016-12-18T03:28:09.744Z,1014.4
2016-12-18T03:29:09.772Z,1014.39
2016-12-18T03:30:09.802Z,1014.39
2016-12-18T03:31:09.830Z,1014.39
2016-12-18T03:32:09.859Z,1014.42
2016-12-18T03:33:09.884Z,1014.42
2016-12-18T03:34:09.918Z,1014.45
2016-12-18T03:35:09.938Z,1014.36
2016-12-18T03:36:09.966Z,1014.36
2016-12-18T03:37:09.991Z,1014.35
2016-12-18T03:38:10.020Z,1014.3
2016-12-18T03:39:10.044Z,1014.3
2016-12-18T03:40:10.074Z,1014.25
2016-12-18T03:41:10.102Z,1014.23
2016-12-18T03:42:10.127Z,1014.28
2016-12-18T03:43:10.155Z,1014.22
2016-12-18T03:44:10.176Z,1014.25
2016-12-18T03:45:10.204Z,1014.23
2016-12-18T03:46:10.237Z,1014.22
2016-12-18T03:47:10.258Z,1014.22
2016-12-18T03:48:10.290Z,1014.24
2016-12-18T03:49:10.311Z,1014.27
2016-12-18T03:50:10.343Z,1014.2
2016-12-18T03:51:10.368Z,1014.19
2016-12-18T03:52:10.397Z,1014.17
2016-12-18T03:53:10.417Z,1014.14
2016-12-18T03:54:10.449Z,1014.16
2016-12-18T03:55:10.468Z,1014.12
2016-12-18T03:56:10.503Z,1014.12
2016-12-18T03:57:10.532Z,1014.1
2016-12-18T03:58:10.561Z,1014.1
2016-12-18T03:59:10.587Z,1014.12
2016-12-18T04:00:10.605Z,1014.11
2016-12-18T04:01:10.638Z,1014.13
2016-12-18T04:02:10.668Z,1014.11
2016-12-18T04:03:10.691Z,1014.08
2016-12-18T04:04:10.723Z,1014.08
2016-12-18T04:05:10.745Z,1014.1
2016-12-18T04:06:10.774Z,1014.1
2016-12-18T04:07:10.799Z,1014.06
2016-12-18T04:08:10.828Z,1014.02
2016-12-18T04:09:10.856Z,1014.07
2016-12-18T04:10:10.876Z,1014.03
2016-12-18T04:11:10.909Z,1014.07
2016-12-18T04:12:10.930Z,1014.08
2016-12-18T04:13:10.963Z,1014.08
2016-12-18T04:14:10.984Z,1014.1
2016-12-18T04:15:11.014Z,1014.12
2016-12-18T04:16:11.044Z,1014.15
2016-12-18T04:17:11.069Z,1014.17
2016-12-18T04:18:11.098Z,1014.18
2016-12-18T04:19:11.118Z,1014.16
2016-12-18T04:20:11.147Z,1014.18
2016-12-18T04:21:11.172Z,1014.16
2016-12-18T04:22:11.205Z,1014.14
2016-12-18T04:23:11.230Z,1014.11
2016-12-18T04:24:11.259Z,1014.08
2016-12-18T04:25:11.283Z,1014.08
2016-12-18T04:26:11.304Z,1014.08
2016-12-18T04:27:11.336Z,1014.14
2016-12-18T04:28:11.365Z,1014.09
2016-12-18T04:29:11.390Z,1014.03
2016-12-18T04:30:11.419Z,1014.06
2016-12-18T04:31:11.444Z,1014.04
2016-12-18T04:32:11.473Z,1014.02
2016-12-18T04:33:11.501Z,1014.05
2016-12-18T04:34:11.533Z,1014.05
2016-12-18T04:35:11.550Z,1014.04
2016-12-18T04:36:11.579Z,1014.08
2016-12-18T04:37:11.607Z,1014.06
2016-12-18T04:38:11.638Z,1014.04
2016-12-18T04:39:11.657Z,1014.02
2016-12-18T04:40:11.690Z,1014.02
2016-12-18T04:41:11.711Z,1014
2016-12-18T04:42:11.744Z,1014
2016-12-18T04:43:11.768Z,1014.06
2016-12-18T04:44:11.793Z,1014.03
2016-12-18T04:45:11.824Z,1014.04
2016-12-18T04:46:11.850Z,1014.03
2016-12-18T04:47:11.875Z,1014.07
2016-12-18T04:48:11.904Z,1014.05
2016-12-18T04:49:11.928Z,1014.13
2016-12-18T04:50:11.953Z,1014.12
2016-12-18T04:51:11.982Z,1014.17
2016-12-18T04:52:12.010Z,1014.15
2016-12-18T04:53:12.040Z,1014.17
2016-12-18T04:54:12.071Z,1014.19
2016-12-18T04:55:12.093Z,1014.18
2016-12-18T04:56:12.114Z,1014.19
2016-12-18T04:57:12.142Z,1014.18
2016-12-18T04:58:12.171Z,1014.21
2016-12-18T04:59:12.195Z,1014.21
2016-12-18T05:00:12.228Z,1014.24
2016-12-18T05:01:12.253Z,1014.24
2016-12-18T05:02:12.278Z,1014.26
2016-12-18T05:03:12.307Z,1014.26
2016-12-18T05:04:12.335Z,1014.27
2016-12-18T05:05:12.360Z,1014.24
2016-12-18T05:06:12.388Z,1014.27
2016-12-18T05:07:12.409Z,1014.22
2016-12-18T05:08:12.451Z,1014.2
2016-12-18T05:09:12.467Z,1014.24
2016-12-18T05:10:12.495Z,1014.23
2016-12-18T05:11:12.525Z,1014.22
2016-12-18T05:12:12.549Z,1014.2
2016-12-18T05:13:12.574Z,1014.22
2016-12-18T05:14:12.603Z,1014.2
2016-12-18T05:15:12.627Z,1014.17
2016-12-18T05:16:12.656Z,1014.18
2016-12-18T05:17:12.681Z,1014.19
2016-12-18T05:18:12.709Z,1014.18
2016-12-18T05:19:12.734Z,1014.12
2016-12-18T05:20:12.763Z,1014.08
2016-12-18T05:21:12.792Z,1014.12
2016-12-18T05:22:12.815Z,1014.1
2016-12-18T05:23:12.840Z,1014.11
2016-12-18T05:24:12.865Z,1014.11
2016-12-18T05:25:12.898Z,1014.07
2016-12-18T05:26:12.924Z,1014.05
2016-12-18T05:27:12.955Z,1014.05
2016-12-18T05:28:12.973Z,1014.08
2016-12-18T05:29:13.006Z,1014.04
2016-12-18T05:30:13.031Z,1014.05
2016-12-18T05:31:13.060Z,1014.03
2016-12-18T05:32:13.086Z,1014.04
2016-12-18T05:33:13.112Z,1014.03
2016-12-18T05:34:13.137Z,1014
2016-12-18T05:35:13.166Z,1013.96
2016-12-18T05:36:13.194Z,1014.02
2016-12-18T05:37:13.220Z,1014.02
2016-12-18T05:38:13.244Z,1013.96
2016-12-18T05:39:13.274Z,1013.91
2016-12-18T05:40:13.298Z,1013.93
2016-12-18T05:41:13.327Z,1013.88
2016-12-18T05:42:13.355Z,1013.87
2016-12-18T05:43:13.667Z,1013.88
2016-12-18T05:44:13.405Z,1013.88
2016-12-18T05:45:13.430Z,1013.85
2016-12-18T05:46:13.461Z,1013.83
2016-12-18T05:47:13.491Z,1013.84
2016-12-18T05:48:13.513Z,1013.87
2016-12-18T05:49:13.540Z,1013.83
2016-12-18T05:50:13.569Z,1013.83
2016-12-18T05:51:13.594Z,1013.86
2016-12-18T05:52:13.622Z,1013.81
2016-12-18T05:53:13.652Z,1013.82
2016-12-18T05:54:13.672Z,1013.81
2016-12-18T05:55:13.705Z,1013.77
2016-12-18T05:56:13.730Z,1013.79
2016-12-18T05:57:13.759Z,1013.75
2016-12-18T05:58:13.799Z,1013.78
2016-12-18T05:59:13.812Z,1013.77
2016-12-18T06:00:13.851Z,1013.81
2016-12-18T06:01:13.865Z,1013.76
2016-12-18T06:02:13.895Z,1013.77
2016-12-18T06:03:13.919Z,1013.74
2016-12-18T06:04:13.948Z,1013.73
2016-12-18T06:05:13.973Z,1013.74
2016-12-18T06:06:14.002Z,1013.78
2016-12-18T06:07:14.026Z,1013.76
2016-12-18T06:08:14.055Z,1013.77
2016-12-18T06:09:14.079Z,1013.75
2016-12-18T06:10:14.108Z,1013.71
2016-12-18T06:11:14.137Z,1013.74
2016-12-18T06:12:14.166Z,1013.78
2016-12-18T06:13:14.185Z,1013.76
2016-12-18T06:14:14.219Z,1013.79
2016-12-18T06:15:14.244Z,1013.73
2016-12-18T06:16:14.268Z,1013.73
2016-12-18T06:17:14.293Z,1013.72
2016-12-18T06:18:14.325Z,1013.73
2016-12-18T06:19:14.349Z,1013.71
2016-12-18T06:20:14.375Z,1013.67
2016-12-18T06:21:14.408Z,1013.68
2016-12-18T06:22:14.433Z,1013.72
2016-12-18T06:23:14.462Z,1013.67
2016-12-18T06:24:14.486Z,1013.69
2016-12-18T06:25:14.511Z,1013.67
2016-12-18T06:26:14.544Z,1013.68
2016-12-18T06:27:14.564Z,1013.65
2016-12-18T06:28:14.603Z,1013.6
2016-12-18T06:29:14.618Z,1013.57
2016-12-18T06:30:14.656Z,1013.6
2016-12-18T06:31:14.679Z,1013.62
2016-12-18T06:32:14.706Z,1013.63
2016-12-18T06:33:14.732Z,1013.61
2016-12-18T06:34:14.756Z,1013.6
2016-12-18T06:35:14.786Z,1013.6
2016-12-18T06:36:14.806Z,1013.62
2016-12-18T06:37:14.835Z,1013.58
2016-12-18T06:38:14.863Z,1013.59
2016-12-18T06:39:14.892Z,1013.6
2016-12-18T06:40:14.917Z,1013.58
2016-12-18T06:41:14.946Z,1013.58
2016-12-18T06:42:14.970Z,1013.62
2016-12-18T06:43:15.003Z,1013.63
2016-12-18T06:44:15.028Z,1013.58
2016-12-18T06:45:15.052Z,1013.58
2016-12-18T06:46:15.085Z,1013.6
2016-12-18T06:47:15.110Z,1013.6
2016-12-18T06:48:15.135Z,1013.61
2016-12-18T06:49:15.163Z,1013.62
2016-12-18T06:50:15.192Z,1013.62
2016-12-18T06:51:15.217Z,1013.59
2016-12-18T06:52:15.245Z,1013.59
2016-12-18T06:53:15.274Z,1013.66
2016-12-18T06:54:15.307Z,1013.65
2016-12-18T06:55:15.323Z,1013.66
2016-12-18T06:56:15.358Z,1013.7
2016-12-18T06:57:15.381Z,1013.69
2016-12-18T06:58:15.409Z,1013.67
2016-12-18T06:59:15.434Z,1013.7
2016-12-18T07:00:15.459Z,1013.65
2016-12-18T07:01:15.492Z,1013.65
2016-12-18T07:02:15.516Z,1013.66
2016-12-18T07:03:15.546Z,1013.65
2016-12-18T07:04:15.574Z,1013.66
2016-12-18T07:05:15.597Z,1013.65
2016-12-18T07:06:15.627Z,1013.59
2016-12-18T07:07:15.652Z,1013.61
2016-12-18T07:08:15.680Z,1013.62
2016-12-18T07:09:15.706Z,1013.6
2016-12-18T07:10:15.733Z,1013.61
2016-12-18T07:11:15.759Z,1013.64
2016-12-18T07:12:15.795Z,1013.59
2016-12-18T07:13:15.816Z,1013.57
2016-12-18T07:14:15.845Z,1013.57
2016-12-18T07:15:15.873Z,1013.54
2016-12-18T07:16:15.904Z,1013.56
2016-12-18T07:17:15.927Z,1013.56
2016-12-18T07:18:15.947Z,1013.63
2016-12-18T07:19:15.977Z,1013.61
2016-12-18T07:20:16.010Z,1013.61
2016-12-18T07:21:16.032Z,1013.6
2016-12-18T07:22:16.071Z,1013.69
2016-12-18T07:23:16.092Z,1013.68
2016-12-18T07:24:16.119Z,1013.65
2016-12-18T07:25:16.140Z,1013.67
2016-12-18T07:26:16.169Z,1013.68
2016-12-18T07:27:16.194Z,1013.71
2016-12-18T07:28:16.223Z,1013.73
2016-12-18T07:29:16.251Z,1013.74
2016-12-18T07:30:16.277Z,1013.69
2016-12-18T07:31:16.309Z,1013.66
2016-12-18T07:32:16.338Z,1013.57
2016-12-18T07:33:16.363Z,1013.61
2016-12-18T07:34:16.391Z,1013.63
2016-12-18T07:35:16.413Z,1013.66
2016-12-18T07:36:16.444Z,1013.71
2016-12-18T07:37:16.473Z,1013.66
2016-12-18T07:38:16.498Z,1013.69
2016-12-18T07:39:16.522Z,1013.68
2016-12-18T07:40:16.556Z,1013.71
2016-12-18T07:41:16.576Z,1013.62
2016-12-18T07:42:16.609Z,1013.67
2016-12-18T07:43:16.634Z,1013.68
2016-12-18T07:44:16.675Z,1013.65
2016-12-18T07:45:16.691Z,1013.68
2016-12-18T07:46:16.715Z,1013.76
2016-12-18T07:47:16.748Z,1013.73
2016-12-18T07:48:16.773Z,1013.82
2016-12-18T07:49:16.802Z,1013.77
2016-12-18T07:50:16.826Z,1013.78
2016-12-18T07:51:16.855Z,1013.74
2016-12-18T07:52:16.883Z,1013.82
2016-12-18T07:53:16.912Z,1013.84
2016-12-18T07:54:16.937Z,1013.83
2016-12-18T07:55:16.966Z,1013.79
2016-12-18T07:56:16.999Z,1013.73
2016-12-18T07:57:17.014Z,1013.71
2016-12-18T07:58:17.046Z,1013.69
2016-12-18T07:59:17.076Z,1013.61
2016-12-18T08:00:17.100Z,1013.63
2016-12-18T08:01:17.129Z,1013.64
2016-12-18T08:02:17.157Z,1013.69
2016-12-18T08:03:17.180Z,1013.7
2016-12-18T08:04:17.219Z,1013.7
2016-12-18T08:05:17.239Z,1013.73
2016-12-18T08:06:17.260Z,1013.74
2016-12-18T08:07:17.292Z,1013.75
2016-12-18T08:08:17.321Z,1013.76
2016-12-18T08:09:17.345Z,1013.82
2016-12-18T08:10:17.375Z,1013.84
2016-12-18T08:11:17.403Z,1013.84
2016-12-18T08:12:17.427Z,1013.9
2016-12-18T08:13:17.457Z,1013.88
2016-12-18T08:14:17.487Z,1013.81
2016-12-18T08:15:17.507Z,1013.81
2016-12-18T08:16:17.539Z,1013.78
2016-12-18T08:17:17.563Z,1013.79
2016-12-18T08:18:17.592Z,1013.78
2016-12-18T08:19:17.617Z,1013.79
2016-12-18T08:20:17.660Z,1013.82
2016-12-18T08:21:17.679Z,1013.85
2016-12-18T08:22:17.703Z,1013.89
2016-12-18T08:23:17.732Z,1013.88
2016-12-18T08:24:17.755Z,1013.91
2016-12-18T08:25:17.785Z,1013.89
2016-12-18T08:26:17.814Z,1013.91
2016-12-18T08:27:17.842Z,1013.87
2016-12-18T08:28:17.863Z,1013.88
2016-12-18T08:29:17.896Z,1013.96
2016-12-18T08:30:17.925Z,1013.95
2016-12-18T08:31:17.947Z,1013.98
2016-12-18T08:32:17.980Z,1014
2016-12-18T08:33:18.003Z,1013.97
2016-12-18T08:34:18.034Z,1013.98
2016-12-18T08:35:18.058Z,1013.96
2016-12-18T08:36:18.089Z,1013.95
2016-12-18T08:37:18.114Z,1013.97
2016-12-18T08:38:18.143Z,1013.92
2016-12-18T08:39:18.168Z,1013.91
2016-12-18T08:40:18.205Z,1013.92
2016-12-18T08:41:18.224Z,1013.87
2016-12-18T08:42:18.250Z,1013.9
2016-12-18T08:43:18.283Z,1013.9
2016-12-18T08:44:18.309Z,1013.9
2016-12-18T08:45:18.337Z,1013.89
2016-12-18T08:46:18.366Z,1013.9
2016-12-18T08:47:18.386Z,1013.92
2016-12-18T08:48:18.419Z,1013.85
2016-12-18T08:49:18.448Z,1013.87
2016-12-18T08:50:18.473Z,1013.92
2016-12-18T08:51:18.499Z,1013.94
2016-12-18T08:52:18.526Z,1013.93
2016-12-18T08:53:18.556Z,1013.95
2016-12-18T08:54:18.579Z,1013.93
2016-12-18T08:55:18.612Z,1013.91
2016-12-18T08:56:18.639Z,1013.95
2016-12-18T08:57:18.662Z,1013.89
2016-12-18T08:58:18.703Z,1013.89
2016-12-18T08:59:18.724Z,1013.94
2016-12-18T09:00:18.749Z,1013.97
2016-12-18T09:01:18.775Z,1014
2016-12-18T09:02:18.806Z,1014.07
2016-12-18T09:03:18.826Z,1014.1
2016-12-18T09:04:18.859Z,1014.11
2016-12-18T09:05:18.884Z,1014.11
2016-12-18T09:06:18.913Z,1014.06
2016-12-18T09:07:18.938Z,1013.97
2016-12-18T09:08:18.967Z,1013.93
2016-12-18T09:09:18.996Z,1013.92
2016-12-18T09:10:19.021Z,1013.88
2016-12-18T09:11:19.047Z,1013.99
2016-12-18T09:12:19.073Z,1014.01
2016-12-18T09:13:19.106Z,1013.96
2016-12-18T09:14:19.143Z,1013.96
2016-12-18T09:15:19.160Z,1013.93
2016-12-18T09:16:19.186Z,1013.88
2016-12-18T09:17:19.213Z,1013.86
2016-12-18T09:18:19.243Z,1013.8
2016-12-18T09:19:19.271Z,1013.77
2016-12-18T09:20:19.295Z,1013.8
2016-12-18T09:21:19.328Z,1013.76
2016-12-18T09:22:19.363Z,1013.72
2016-12-18T09:23:19.382Z,1013.72
2016-12-18T09:24:19.410Z,1013.69
2016-12-18T09:25:19.436Z,1013.63
2016-12-18T09:26:19.472Z,1013.67
2016-12-18T09:27:19.488Z,1013.65
2016-12-18T09:28:19.518Z,1013.71
2016-12-18T09:29:19.544Z,1013.75
2016-12-18T09:30:19.575Z,1013.8
2016-12-18T09:31:19.600Z,1013.84
2016-12-18T09:32:19.629Z,1013.84
2016-12-18T09:33:19.654Z,1013.77
2016-12-18T09:34:19.683Z,1013.78
2016-12-18T09:35:19.704Z,1013.76
2016-12-18T09:36:19.736Z,1013.74
2016-12-18T09:37:19.772Z,1013.78
2016-12-18T09:38:19.786Z,1013.8
2016-12-18T09:39:19.819Z,1013.8
2016-12-18T09:40:19.847Z,1013.74
2016-12-18T09:41:19.868Z,1013.78
2016-12-18T09:42:19.901Z,1013.75
2016-12-18T09:43:19.926Z,1013.72
2016-12-18T09:44:19.951Z,1013.72
2016-12-18T09:45:19.983Z,1013.72
2016-12-18T09:46:20.008Z,1013.69
2016-12-18T09:47:20.037Z,1013.76
2016-12-18T09:48:20.061Z,1013.71
2016-12-18T09:49:20.091Z,1013.72
2016-12-18T09:50:20.116Z,1013.68
2016-12-18T09:51:20.145Z,1013.66
2016-12-18T09:52:20.168Z,1013.65
2016-12-18T09:53:20.193Z,1013.61
2016-12-18T09:54:20.222Z,1013.56
2016-12-18T09:55:20.247Z,1013.52
2016-12-18T09:56:20.287Z,1013.5
2016-12-18T09:57:20.309Z,1013.47
2016-12-18T09:58:20.329Z,1013.41
2016-12-18T09:59:20.363Z,1013.43
2016-12-18T10:00:20.403Z,1013.48
2016-12-18T10:01:20.408Z,1013.43
2016-12-18T10:02:20.440Z,1013.4
2016-12-18T10:03:20.465Z,1013.45
2016-12-18T10:04:20.497Z,1013.41
2016-12-18T10:05:20.519Z,1013.48
2016-12-18T10:06:20.551Z,1013.46
2016-12-18T10:07:20.579Z,1013.41
2016-12-18T10:08:20.600Z,1013.38
2016-12-18T10:09:20.629Z,1013.33
2016-12-18T10:10:20.654Z,1013.29
2016-12-18T10:11:20.683Z,1013.25
2016-12-18T10:12:20.708Z,1013.24
2016-12-18T10:13:20.737Z,1013.16
2016-12-18T10:14:20.769Z,1013.14
2016-12-18T10:15:20.790Z,1013.11
2016-12-18T10:16:20.844Z,1013.16
2016-12-18T10:17:20.843Z,1013.2
2016-12-18T10:18:20.873Z,1013.2
2016-12-18T10:19:20.905Z,1013.18
2016-12-18T10:20:20.939Z,1013.12
2016-12-18T10:21:20.958Z,1013.16
2016-12-18T10:22:20.988Z,1013.2
2016-12-18T10:23:21.012Z,1013.18
2016-12-18T10:24:21.038Z,1013.16
2016-12-18T10:25:21.065Z,1013.18
2016-12-18T10:26:21.090Z,1013.17
2016-12-18T10:27:21.115Z,1013.22
2016-12-18T10:28:21.148Z,1013.23
2016-12-18T10:29:21.173Z,1013.23
2016-12-18T10:30:21.202Z,1013.24
2016-12-18T10:31:21.227Z,1013.24
2016-12-18T10:32:21.256Z,1013.26
2016-12-18T10:33:21.284Z,1013.23
2016-12-18T10:34:21.308Z,1013.21
2016-12-18T10:35:21.337Z,1013.17
2016-12-18T10:36:21.370Z,1013.09
2016-12-18T10:37:21.386Z,1013.04
2016-12-18T10:38:21.417Z,1013.06
2016-12-18T10:39:21.440Z,1013.07
2016-12-18T10:40:21.480Z,1013.07
2016-12-18T10:41:21.497Z,1013.09
2016-12-18T10:42:21.522Z,1013.06
2016-12-18T10:43:21.551Z,1013.05
2016-12-18T10:44:21.571Z,1013.01
2016-12-18T10:45:21.608Z,1013.06
2016-12-18T10:46:21.629Z,1013.01
2016-12-18T10:47:21.662Z,1012.97
2016-12-18T10:48:21.686Z,1012.93
2016-12-18T10:49:21.711Z,1012.94
2016-12-18T10:50:21.739Z,1012.95
2016-12-18T10:51:21.768Z,1012.95
2016-12-18T10:52:21.807Z,1012.98
2016-12-18T10:53:21.821Z,1012.97
2016-12-18T10:54:21.847Z,1012.97
2016-12-18T10:55:21.875Z,1012.95
2016-12-18T10:56:21.905Z,1012.94
2016-12-18T10:57:21.933Z,1012.95
2016-12-18T10:58:21.961Z,1012.91
2016-12-18T10:59:21.986Z,1012.9
2016-12-18T11:00:22.015Z,1012.83
2016-12-18T11:01:22.041Z,1012.84
2016-12-18T11:02:22.092Z,1012.83
2016-12-18T11:03:22.094Z,1012.83
2016-12-18T11:04:22.131Z,1012.86
2016-12-18T11:05:22.185Z,1012.78
2016-12-18T11:06:22.175Z,1012.76
2016-12-18T11:07:22.204Z,1012.79
2016-12-18T11:08:22.233Z,1012.83
2016-12-18T11:09:22.256Z,1012.83
2016-12-18T11:10:22.294Z,1012.84
2016-12-18T11:11:22.310Z,1012.8
2016-12-18T11:12:22.340Z,1012.81
2016-12-18T11:13:22.367Z,1012.73
2016-12-18T11:14:22.390Z,1012.68
2016-12-18T11:15:22.425Z,1012.63
2016-12-18T11:16:22.446Z,1012.62
2016-12-18T11:17:22.474Z,1012.65
2016-12-18T11:18:22.498Z,1012.72
2016-12-18T11:19:22.579Z,1012.73
2016-12-18T11:20:22.551Z,1012.66
2016-12-18T11:21:22.581Z,1012.65
2016-12-18T11:22:22.610Z,1012.65
2016-12-18T11:23:22.634Z,1012.66
2016-12-18T11:24:22.665Z,1012.72
2016-12-18T11:25:22.688Z,1012.64
2016-12-18T11:26:22.719Z,1012.63
2016-12-18T11:27:22.747Z,1012.66
2016-12-18T11:28:22.770Z,1012.71
2016-12-18T11:29:22.794Z,1012.68
2016-12-18T11:30:22.823Z,1012.65
2016-12-18T11:31:22.855Z,1012.64
2016-12-18T11:32:22.880Z,1012.64
2016-12-18T11:33:22.908Z,1012.62
2016-12-18T11:34:22.936Z,1012.64
2016-12-18T11:35:22.963Z,1012.65
2016-12-18T11:36:22.991Z,1012.67
2016-12-18T11:37:23.016Z,1012.62
2016-12-18T11:38:23.041Z,1012.58
2016-12-18T11:39:23.072Z,1012.62
2016-12-18T11:40:23.094Z,1012.63
2016-12-18T11:41:23.131Z,1012.65
2016-12-18T11:42:23.156Z,1012.61
2016-12-18T11:43:23.186Z,1012.66
2016-12-18T11:44:23.209Z,1012.58
2016-12-18T11:45:23.249Z,1012.59
2016-12-18T11:46:23.267Z,1012.65
2016-12-18T11:47:23.312Z,1012.6
2016-12-18T11:48:23.320Z,1012.56
2016-12-18T11:49:23.345Z,1012.5
2016-12-18T11:50:23.371Z,1012.51
2016-12-18T11:51:23.403Z,1012.46
2016-12-18T11:52:23.428Z,1012.43
2016-12-18T11:53:23.461Z,1012.46
2016-12-18T11:54:23.484Z,1012.39
2016-12-18T11:55:23.510Z,1012.36
2016-12-18T11:56:23.534Z,1012.38
2016-12-18T11:57:23.573Z,1012.37
2016-12-18T11:58:23.591Z,1012.38
2016-12-18T11:59:23.622Z,1012.37
2016-12-18T12:00:23.648Z,1012.37
2016-12-18T12:01:23.674Z,1012.36
2016-12-18T12:02:23.715Z,1012.32
2016-12-18T12:03:23.732Z,1012.32
2016-12-18T12:04:23.763Z,1012.29
2016-12-18T12:05:23.781Z,1012.28
2016-12-18T12:06:23.816Z,1012.28
2016-12-18T12:07:23.843Z,1012.28
2016-12-18T12:08:23.872Z,1012.27